Time;durP1;ratioP1;P1;durP2;ratioP2;P2;SDS_P1;SDS_P2;PMS_P1;PMS_P2;Temp;Humidity;BMP_temperature;BMP_pressure;BME280_temperature;BME280_humidity;BME280_pressure;Samples;Min_cycle;Max_cycle;Signal;HPM_P1;HPM_P2
2022/08/14 00:02:03;;;;;;;7.05;6.32;;;21.50;94.60;;;;;;5094266;28;20048;-65
2022/08/14 00:04:30;;;;;;;9.55;6.55;;;21.50;94.70;;;;;;5095790;28;20040;-65
2022/08/14 00:06:55;;;;;;;6.40;5.90;;;21.50;94.80;;;;;;5077465;28;20055;-68
2022/08/14 00:09:22;;;;;;;6.30;5.80;;;21.50;95.00;;;;;;5094276;28;20032;-67
2022/08/14 00:11:47;;;;;;;6.65;5.97;;;21.50;94.80;;;;;;5094251;28;20040;-68
2022/08/14 00:14:13;;;;;;;6.10;5.65;;;21.60;95.30;;;;;;5094229;28;20097;-68
2022/08/14 00:16:39;;;;;;;6.10;5.60;;;21.60;95.30;;;;;;5095576;28;20119;-68
2022/08/14 00:19:04;;;;;;;7.22;6.13;;;21.60;95.50;;;;;;5094314;28;20372;-68
2022/08/14 00:21:31;;;;;;;6.15;5.65;;;21.60;95.60;;;;;;5077153;28;20080;-68
2022/08/14 00:23:56;;;;;;;6.13;5.43;;;21.70;95.50;;;;;;5095201;28;20135;-68
2022/08/14 00:26:23;;;;;;;6.65;5.90;;;21.60;96.10;;;;;;5095033;28;20083;-68
2022/08/14 00:28:52;;;;;;;6.72;6.03;;;21.60;95.70;;;;;;5095055;28;20071;-68
2022/08/14 00:31:19;;;;;;;6.30;5.32;;;21.60;95.90;;;;;;5095169;28;20040;-68
2022/08/14 00:33:44;;;;;;;6.90;5.60;;;21.60;95.50;;;;;;5094105;28;20052;-68
2022/08/14 00:36:10;;;;;;;6.78;5.65;;;21.60;95.80;;;;;;5095121;28;20399;-68
2022/08/14 00:38:36;;;;;;;6.63;5.97;;;21.50;95.90;;;;;;5093017;28;20032;-68
2022/08/14 00:41:06;;;;;;;7.82;5.70;;;21.60;96.20;;;;;;5094652;28;20052;-68
2022/08/14 00:43:35;;;;;;;6.55;5.95;;;21.50;96.90;;;;;;5094913;28;20040;-69
2022/08/14 00:46:07;;;;;;;6.60;6.00;;;21.50;96.50;;;;;;5077040;28;20040;-68
2022/08/14 00:48:33;;;;;;;7.10;6.40;;;21.50;96.70;;;;;;5094872;28;20044;-68
2022/08/14 00:50:59;;;;;;;7.47;5.85;;;21.50;97.00;;;;;;5094659;28;20043;-68
2022/08/14 00:53:26;;;;;;;7.10;5.97;;;21.40;97.00;;;;;;5094945;28;20125;-68
2022/08/14 00:55:56;;;;;;;6.38;5.78;;;21.40;96.90;;;;;;5094475;28;20109;-68
2022/08/14 00:58:31;;;;;;;6.82;6.18;;;21.40;97.10;;;;;;5095001;28;20044;-68
2022/08/14 01:01:10;;;;;;;8.30;6.70;;;21.30;97.20;;;;;;5094759;28;20032;-68
2022/08/14 01:03:38;;;;;;;6.43;5.90;;;21.30;97.80;;;;;;5094759;28;20421;-68
2022/08/14 01:06:07;;;;;;;9.05;6.60;;;21.20;97.70;;;;;;5094395;28;20457;-68
2022/08/14 01:08:33;;;;;;;6.55;5.95;;;21.20;97.80;;;;;;5094212;28;20043;-67
2022/08/14 01:10:59;;;;;;;6.65;6.13;;;21.20;98.00;;;;;;5094354;28;20044;-68
2022/08/14 01:13:31;;;;;;;6.85;6.25;;;21.10;98.70;;;;;;5094453;28;20131;-68
2022/08/14 01:16:00;;;;;;;7.68;6.15;;;21.10;98.40;;;;;;5094277;28;20040;-68
2022/08/14 01:21:15;;;;;;;7.07;6.47;;;21.10;98.40;;;;;;5094326;28;20048;-68
2022/08/14 01:23:44;;;;;;;7.05;6.35;;;21.00;98.40;;;;;;5076229;28;20048;-68
2022/08/14 01:26:11;;;;;;;7.32;6.15;;;21.10;98.90;;;;;;5095431;28;20086;-68
2022/08/14 01:28:38;;;;;;;7.30;6.80;;;21.00;99.20;;;;;;5093981;28;20543;-68
2022/08/14 01:31:12;;;;;;;8.23;6.78;;;20.90;99.10;;;;;;5093989;28;20098;-68
2022/08/14 01:33:40;;;;;;;7.70;7.00;;;20.80;99.50;;;;;;5094169;28;20048;-68
2022/08/14 01:36:08;;;;;;;7.28;6.60;;;20.80;99.70;;;;;;5094145;28;20040;-68
2022/08/14 01:38:34;;;;;;;7.68;6.93;;;20.70;99.90;;;;;;5092637;28;20127;-68
2022/08/14 01:41:05;;;;;;;7.40;6.70;;;20.70;99.90;;;;;;5092256;28;20147;-68
2022/08/14 01:43:37;;;;;;;7.88;7.20;;;20.70;99.90;;;;;;5094140;28;20115;-68
2022/08/14 01:46:05;;;;;;;7.95;6.95;;;20.60;99.90;;;;;;5093578;28;20075;-68
2022/08/14 01:48:32;;;;;;;7.90;7.20;;;20.60;99.90;;;;;;5093908;28;20052;-68
2022/08/14 01:51:02;;;;;;;7.57;6.93;;;20.60;99.90;;;;;;5092795;28;20040;-68
2022/08/14 01:53:28;;;;;;;7.45;6.85;;;20.50;99.90;;;;;;5093853;28;20074;-68
2022/08/14 01:55:57;;;;;;;8.32;7.45;;;20.40;99.90;;;;;;5093584;28;20048;-68
2022/08/14 01:58:26;;;;;;;7.65;6.75;;;20.40;99.90;;;;;;5093667;28;20051;-68
2022/08/14 02:00:53;;;;;;;8.32;7.07;;;20.40;99.90;;;;;;5092356;28;20078;-68
2022/08/14 02:03:19;;;;;;;7.88;7.18;;;20.30;99.90;;;;;;5093681;28;20051;-68
2022/08/14 02:05:44;;;;;;;8.77;7.15;;;20.30;99.90;;;;;;5093867;28;20490;-67
2022/08/14 02:08:10;;;;;;;7.88;7.18;;;20.30;99.90;;;;;;5093342;28;20052;-68
2022/08/14 02:10:40;;;;;;;7.40;6.82;;;20.30;99.90;;;;;;5093444;28;20174;-69
2022/08/14 02:13:10;;;;;;;8.60;6.70;;;20.30;99.90;;;;;;5093424;28;20088;-68
2022/08/14 02:15:39;;;;;;;7.53;6.93;;;20.20;99.90;;;;;;5093452;28;20040;-68
2022/08/14 02:18:06;;;;;;;7.93;7.18;;;20.20;99.90;;;;;;5093556;28;20388;-66
2022/08/14 02:20:32;;;;;;;7.65;6.82;;;20.20;99.90;;;;;;5093557;28;20120;-68
2022/08/14 02:23:01;;;;;;;7.68;6.88;;;20.20;99.90;;;;;;5093216;28;20501;-69
2022/08/14 02:25:29;;;;;;;7.18;6.50;;;20.10;99.90;;;;;;5093152;28;20418;-66
2022/08/14 02:27:55;;;;;;;8.40;7.00;;;20.10;99.90;;;;;;5093284;28;20090;-69
2022/08/14 02:30:25;;;;;;;7.80;7.20;;;20.10;99.90;;;;;;5092962;28;20487;-68
2022/08/14 02:32:51;;;;;;;7.80;7.18;;;20.10;99.90;;;;;;5093379;28;20043;-68
2022/08/14 02:35:18;;;;;;;8.18;7.50;;;20.10;99.90;;;;;;5093275;28;20044;-68
2022/08/14 02:37:46;;;;;;;7.90;7.13;;;20.00;99.90;;;;;;5093382;28;20071;-69
2022/08/14 02:40:11;;;;;;;13.05;7.32;;;20.00;99.90;;;;;;5091801;28;20388;-68
2022/08/14 02:42:38;;;;;;;9.50;7.72;;;20.00;99.90;;;;;;5093183;28;20055;-68
2022/08/14 02:45:05;;;;;;;8.18;7.40;;;20.00;99.90;;;;;;5092931;28;20506;-68
2022/08/14 02:47:30;;;;;;;11.10;8.27;;;19.90;99.90;;;;;;5093174;28;20109;-68
2022/08/14 02:49:56;;;;;;;8.93;7.40;;;19.80;99.90;;;;;;5092928;28;20487;-68
2022/08/14 02:52:24;;;;;;;9.55;8.65;;;19.80;99.90;;;;;;5092964;28;20040;-68
2022/08/14 02:54:51;;;;;;;7.97;7.28;;;19.70;99.90;;;;;;5092747;28;20055;-68
2022/08/14 02:57:17;;;;;;;8.82;7.93;;;19.70;99.90;;;;;;5093120;28;20089;-68
2022/08/14 02:59:42;;;;;;;8.57;7.78;;;19.70;99.90;;;;;;5092879;28;20502;-68
2022/08/14 03:02:08;;;;;;;8.65;7.95;;;19.70;99.90;;;;;;5094927;28;20036;-68
2022/08/14 03:04:34;;;;;;;8.45;7.65;;;19.70;99.90;;;;;;5097018;28;20105;-68
2022/08/14 03:07:00;;;;;;;8.20;7.60;;;19.60;99.90;;;;;;5096699;28;20044;-68
2022/08/14 03:09:26;;;;;;;9.35;8.45;;;19.60;99.90;;;;;;5096788;28;20035;-69
2022/08/14 03:11:51;;;;;;;8.77;7.95;;;19.50;99.90;;;;;;5096777;28;20120;-69
2022/08/14 03:14:19;;;;;;;8.85;8.05;;;19.50;99.90;;;;;;5096716;28;20036;-68
2022/08/14 03:16:48;;;;;;;8.93;8.13;;;19.50;99.90;;;;;;5096599;28;20414;-68
2022/08/14 03:19:13;;;;;;;9.20;8.38;;;19.50;99.90;;;;;;5096828;28;20454;-68
2022/08/14 03:21:39;;;;;;;9.77;7.88;;;19.40;99.90;;;;;;5095419;28;20047;-68
2022/08/14 03:24:11;;;;;;;9.65;8.70;;;19.30;99.90;;;;;;5097289;28;20044;-68
2022/08/14 03:26:42;;;;;;;10.52;9.07;;;19.30;99.90;;;;;;5096653;28;20044;-68
2022/08/14 03:29:11;;;;;;;9.55;8.73;;;19.30;99.90;;;;;;5095148;28;20463;-68
2022/08/14 03:31:39;;;;;;;8.65;8.05;;;19.30;99.90;;;;;;5096245;28;20051;-68
2022/08/14 03:34:07;;;;;;;9.93;8.90;;;19.30;99.90;;;;;;5096118;28;20090;-68
2022/08/14 03:36:33;;;;;;;8.98;8.07;;;19.30;99.90;;;;;;5094802;28;20123;-68
2022/08/14 03:38:59;;;;;;;9.68;8.77;;;19.20;99.90;;;;;;5096087;28;20136;-69
2022/08/14 03:41:27;;;;;;;10.32;9.18;;;19.20;99.90;;;;;;5096229;28;20410;-68
2022/08/14 03:43:58;;;;;;;9.65;8.70;;;19.20;99.90;;;;;;5095953;28;20119;-68
2022/08/14 03:46:26;;;;;;;9.60;8.70;;;19.20;99.90;;;;;;5077774;28;20048;-68
2022/08/14 03:48:53;;;;;;;9.70;8.80;;;19.20;99.90;;;;;;5095957;28;20040;-68
2022/08/14 03:51:20;;;;;;;9.15;8.43;;;19.20;99.90;;;;;;5094722;28;20111;-68
2022/08/14 03:53:47;;;;;;;8.52;7.88;;;19.20;99.90;;;;;;5096078;28;20044;-68
2022/08/14 03:56:14;;;;;;;9.75;8.77;;;19.20;99.90;;;;;;5096194;28;20074;-69
2022/08/14 03:58:44;;;;;;;9.55;8.15;;;19.10;99.90;;;;;;5095833;28;20122;-68
2022/08/14 04:01:11;;;;;;;9.52;8.77;;;19.20;99.90;;;;;;5095617;28;20075;-69
2022/08/14 04:03:36;;;;;;;9.05;8.25;;;19.10;99.90;;;;;;5095863;28;20454;-68
2022/08/14 04:06:03;;;;;;;9.52;8.60;;;19.10;99.90;;;;;;5095730;28;20032;-68
2022/08/14 04:08:29;;;;;;;10.53;9.43;;;19.10;99.90;;;;;;5095556;28;20052;-68
2022/08/14 04:10:56;;;;;;;9.20;8.32;;;19.10;99.90;;;;;;5095267;28;20505;-68
2022/08/14 04:13:21;;;;;;;8.97;8.27;;;19.10;99.90;;;;;;5094402;28;20053;-68
2022/08/14 04:15:48;;;;;;;9.82;8.95;;;19.10;99.90;;;;;;5095372;28;20414;-68
2022/08/14 04:18:13;;;;;;;10.00;7.90;;;19.00;99.90;;;;;;5095440;28;20039;-68
2022/08/14 04:20:41;;;;;;;9.20;8.40;;;19.00;99.90;;;;;;5095139;28;20105;-69
2022/08/14 04:23:08;;;;;;;9.50;8.60;;;19.10;99.90;;;;;;5095555;28;20043;-68
2022/08/14 04:25:35;;;;;;;9.25;8.55;;;19.00;99.90;;;;;;5095440;28;20190;-68
2022/08/14 04:28:04;;;;;;;9.20;8.40;;;19.00;99.90;;;;;;5095214;28;20040;-68
2022/08/14 04:30:38;;;;;;;9.73;8.82;;;19.10;99.90;;;;;;5095504;28;20051;-68
2022/08/14 04:33:07;;;;;;;10.77;9.00;;;19.10;99.90;;;;;;5095318;28;20051;-68
2022/08/14 04:35:34;;;;;;;9.48;8.38;;;19.10;99.90;;;;;;5095174;28;20040;-68
2022/08/14 04:43:37;;;;;;;9.48;8.65;;;19.20;99.90;;;;;;5094995;28;20131;-68
2022/08/14 04:46:09;;;;;;;9.18;8.40;;;19.20;99.90;;;;;;5094926;28;20123;-68
2022/08/14 04:48:34;;;;;;;9.52;8.50;;;19.20;99.90;;;;;;5094904;28;20093;-68
2022/08/14 04:51:02;;;;;;;9.75;8.80;;;19.30;99.90;;;;;;5094822;28;20487;-68
2022/08/14 04:53:29;;;;;;;;;;;19.40;99.90;;;;;;5095017;28;20537;-68
2022/08/14 04:55:55;;;;;;;9.57;8.50;;;19.40;99.90;;;;;;5094525;28;19926;-68
2022/08/14 04:58:25;;;;;;;8.80;8.00;;;19.50;99.90;;;;;;5094737;28;20089;-68
2022/08/14 05:00:51;;;;;;;9.10;8.20;;;19.50;99.90;;;;;;5094863;28;20048;-67
2022/08/14 05:03:21;;;;;;;10.65;8.77;;;19.60;99.90;;;;;;5094615;28;20047;-67
2022/08/14 05:05:48;;;;;;;9.13;8.38;;;19.70;99.90;;;;;;5094434;28;20040;-67
2022/08/14 05:08:14;;;;;;;9.13;8.32;;;19.70;99.90;;;;;;5094327;28;20118;-66
2022/08/14 05:10:43;;;;;;;9.20;8.38;;;19.80;99.90;;;;;;5094492;28;20123;-69
2022/08/14 05:13:09;;;;;;;9.52;8.60;;;19.90;99.90;;;;;;5094732;28;20040;-67
2022/08/14 05:15:37;;;;;;;9.48;8.52;;;19.90;99.90;;;;;;5094407;28;20048;-67
2022/08/14 05:18:11;;;;;;;9.15;8.45;;;20.00;99.90;;;;;;5094542;28;20044;-68
2022/08/14 05:20:39;;;;;;;10.25;8.18;;;20.10;99.90;;;;;;5094380;28;20399;-67
2022/08/14 05:23:06;;;;;;;10.15;8.73;;;20.10;99.90;;;;;;5094405;28;20051;-67
2022/08/14 05:25:33;;;;;;;10.15;8.82;;;20.20;99.90;;;;;;5092644;28;20052;-67
2022/08/14 05:28:17;;;;;;;9.77;8.77;;;20.20;99.90;;;;;;5075892;28;20043;-67
2022/08/14 05:30:45;;;;;;;10.38;9.30;;;20.30;99.90;;;;;;5093927;28;20105;-67
2022/08/14 05:33:11;;;;;;;;;;;20.40;99.90;;;;;;5092982;28;20410;-67
2022/08/14 05:35:37;;;;;;;9.43;8.63;;;20.50;99.90;;;;;;5093883;28;20432;-67
2022/08/14 05:38:08;;;;;;;9.57;8.77;;;21.20;99.90;;;;;;5094122;28;20044;-67
2022/08/14 05:40:34;;;;;;;10.25;9.20;;;22.20;99.90;;;;;;5093994;28;20101;-67
2022/08/14 05:43:00;;;;;;;10.27;8.95;;;23.10;99.90;;;;;;5092883;28;20411;-67
2022/08/14 05:45:25;;;;;;;9.73;8.85;;;23.80;99.90;;;;;;5093680;28;20051;-67
2022/08/14 05:47:51;;;;;;;9.43;8.57;;;24.40;99.90;;;;;;5093524;28;20049;-68
2022/08/14 05:50:17;;;;;;;12.38;8.93;;;25.00;99.90;;;;;;5094128;28;20044;-67
2022/08/14 05:52:42;;;;;;;9.75;8.85;;;25.30;99.90;;;;;;5093722;28;20124;-67
2022/08/14 05:55:10;;;;;;;9.45;8.55;;;25.30;99.90;;;;;;5092424;28;20044;-68
2022/08/14 05:57:52;;;;;;;9.30;8.32;;;26.00;99.90;;;;;;5093850;28;20040;-68
2022/08/14 06:00:22;;;;;;;10.13;8.80;;;26.50;99.90;;;;;;5093438;28;20040;-67
2022/08/14 06:02:47;;;;;;;9.63;8.63;;;26.50;99.00;;;;;;5093690;28;20044;-68
2022/08/14 06:05:13;;;;;;;9.10;8.40;;;26.40;98.40;;;;;;5093600;28;20067;-67
2022/08/14 06:07:39;;;;;;;8.77;7.97;;;26.90;98.60;;;;;;5093499;28;20123;-67
2022/08/14 06:10:07;;;;;;;9.85;8.85;;;26.80;97.60;;;;;;5075146;28;20159;-68
2022/08/14 06:12:32;;;;;;;9.00;8.20;;;27.10;97.90;;;;;;5093351;28;20406;-67
2022/08/14 06:14:58;;;;;;;9.68;7.82;;;27.20;97.00;;;;;;5093235;28;20039;-68
2022/08/14 06:17:24;;;;;;;8.93;8.05;;;27.50;96.90;;;;;;5093318;28;20127;-68
2022/08/14 06:19:50;;;;;;;8.93;7.55;;;27.70;96.60;;;;;;5093400;28;20052;-68
2022/08/14 06:22:16;;;;;;;8.45;7.75;;;28.10;95.80;;;;;;5093255;28;20384;-68
2022/08/14 06:24:42;;;;;;;8.55;7.75;;;28.40;95.70;;;;;;5093244;28;20040;-69
2022/08/14 06:27:07;;;;;;;8.00;7.30;;;28.40;95.00;;;;;;5093293;28;20040;-69
2022/08/14 06:29:33;;;;;;;8.60;7.80;;;28.30;95.00;;;;;;5093196;28;20082;-68
2022/08/14 06:31:59;;;;;;;8.98;7.07;;;28.50;94.90;;;;;;5093430;28;20047;-68
2022/08/14 06:34:25;;;;;;;8.90;8.20;;;28.90;94.30;;;;;;5093440;28;20040;-68
2022/08/14 06:36:52;;;;;;;9.02;7.70;;;28.70;93.50;;;;;;5095012;28;20040;-68
2022/08/14 06:39:18;;;;;;;7.90;7.13;;;28.80;93.10;;;;;;5095822;28;20047;-68
2022/08/14 06:41:43;;;;;;;7.03;6.45;;;28.90;93.40;;;;;;5097125;28;20047;-68
2022/08/14 06:44:09;;;;;;;10.55;6.90;;;29.00;93.50;;;;;;5097146;28;20079;-68
2022/08/14 06:46:34;;;;;;;7.97;7.38;;;29.30;93.20;;;;;;5097335;28;20419;-68
2022/08/14 06:49:00;;;;;;;7.13;6.53;;;29.30;92.50;;;;;;5096998;28;20123;-68
2022/08/14 06:51:25;;;;;;;7.32;6.65;;;29.00;92.30;;;;;;5097361;28;20039;-68
2022/08/14 06:53:51;;;;;;;7.75;6.90;;;29.30;92.50;;;;;;5097284;28;20500;-68
2022/08/14 06:56:17;;;;;;;6.72;6.20;;;29.50;92.00;;;;;;5096992;28;20033;-68
2022/08/14 06:58:42;;;;;;;6.85;6.25;;;29.70;92.20;;;;;;5096776;28;20075;-68
2022/08/14 07:06:36;;;;;;;6.70;5.82;;;30.80;93.80;;;;;;5097069;28;20054;-68
2022/08/14 07:09:03;;;;;;;7.82;6.03;;;31.10;94.50;;;;;;5095502;28;20115;-68
2022/08/14 07:11:29;;;;;;;6.70;6.05;;;31.10;89.30;;;;;;5096665;28;20047;-68
2022/08/14 07:13:55;;;;;;;6.68;6.10;;;31.10;89.30;;;;;;5096913;28;20390;-69
2022/08/14 07:16:21;;;;;;;6.10;5.63;;;31.10;88.60;;;;;;5096716;28;20059;-68
2022/08/14 07:18:47;;;;;;;6.13;5.60;;;30.20;88.20;;;;;;5096587;28;20044;-68
2022/08/14 07:21:14;;;;;;;7.18;6.30;;;30.80;99.90;;;;;;5096812;28;20451;-68
2022/08/14 07:23:40;;;;;;;7.85;6.03;;;30.60;99.60;;;;;;5096373;28;20076;-69
2022/08/14 07:26:06;;;;;;;8.23;5.60;;;30.70;99.90;;;;;;5096550;28;20118;-69
2022/08/14 07:28:34;;;;;;;6.68;5.95;;;31.10;99.90;;;;;;5096378;28;20122;-69
2022/08/14 07:31:03;;;;;;;6.25;5.68;;;31.00;99.50;;;;;;5095307;28;20040;-69
2022/08/14 07:33:31;;;;;;;5.90;5.35;;;30.70;92.60;;;;;;5095300;28;20067;-69
2022/08/14 07:35:59;;;;;;;6.30;5.70;;;30.30;87.20;;;;;;5096496;28;20115;-69
2022/08/14 07:38:28;;;;;;;8.43;5.70;;;29.50;88.60;;;;;;5096096;28;20044;-69
2022/08/14 07:40:54;;;;;;;6.85;5.97;;;28.50;90.20;;;;;;5095887;28;20056;-69
2022/08/14 07:43:21;;;;;;;6.25;5.70;;;28.00;90.80;;;;;;5096228;28;20216;-69
2022/08/14 07:45:46;;;;;;;6.30;5.72;;;27.50;91.40;;;;;;5096094;28;20495;-69
2022/08/14 07:48:12;;;;;;;5.70;5.30;;;27.50;91.90;;;;;;5095934;28;20051;-69
2022/08/14 07:50:38;;;;;;;6.13;5.50;;;27.30;92.40;;;;;;5096067;28;20036;-70
2022/08/14 07:53:05;;;;;;;6.35;5.90;;;27.60;92.90;;;;;;5094615;28;20036;-69
2022/08/14 07:55:31;;;;;;;6.68;5.75;;;27.30;93.00;;;;;;5096108;28;20079;-68
2022/08/14 07:57:57;;;;;;;7.40;6.07;;;27.20;92.70;;;;;;5096079;28;20044;-68
2022/08/14 08:00:24;;;;;;;7.00;6.30;;;27.10;93.00;;;;;;5096001;28;20041;-69
2022/08/14 08:02:53;;;;;;;6.38;5.85;;;27.00;93.20;;;;;;5095850;28;20041;-67
2022/08/14 08:05:21;;;;;;;6.70;6.05;;;26.90;93.50;;;;;;5095533;28;20391;-68
2022/08/14 08:07:47;;;;;;;7.05;6.35;;;27.20;93.70;;;;;;5094362;28;20040;-68
2022/08/14 08:10:31;;;;;;;6.97;6.18;;;27.10;93.30;;;;;;5096160;28;20040;-68
2022/08/14 08:13:06;;;;;;;6.75;6.15;;;27.10;93.40;;;;;;5095665;28;20052;-68
2022/08/14 08:15:37;;;;;;;7.13;6.43;;;27.30;93.50;;;;;;5095657;28;20075;-67
2022/08/14 08:18:04;;;;;;;6.25;5.65;;;27.60;93.10;;;;;;5095743;28;20048;-67
2022/08/14 08:20:33;;;;;;;5.97;5.53;;;27.60;93.10;;;;;;5095598;28;20040;-68
2022/08/14 08:22:59;;;;;;;7.18;5.45;;;27.60;93.00;;;;;;5095307;28;20082;-68
2022/08/14 08:25:26;;;;;;;6.72;5.43;;;;;;;;;;5095558;28;20111;-68
2022/08/14 08:28:01;;;;;;;6.50;5.72;;;28.00;92.50;;;;;;5095199;28;20036;-68
2022/08/14 08:30:29;;;;;;;6.25;5.65;;;28.00;93.10;;;;;;5095019;28;20040;-68
2022/08/14 08:32:57;;;;;;;6.22;5.70;;;28.30;92.40;;;;;;5095294;28;20053;-68
2022/08/14 08:35:26;;;;;;;5.60;4.95;;;28.20;92.20;;;;;;5095173;28;20047;-68
2022/08/14 08:37:53;;;;;;;5.88;5.32;;;28.20;91.70;;;;;;5095103;28;20047;-67
2022/08/14 08:40:34;;;;;;;5.43;4.93;;;28.40;92.10;;;;;;5095264;28;20391;-68
2022/08/14 08:43:05;;;;;;;5.43;5.03;;;28.40;91.60;;;;;;5094841;28;20036;-68
2022/08/14 08:45:32;;;;;;;5.75;5.05;;;28.50;91.80;;;;;;5095417;28;20079;-68
2022/08/14 08:47:58;;;;;;;6.00;5.40;;;28.40;91.50;;;;;;5094852;28;20561;-68
2022/08/14 08:50:29;;;;;;;6.28;4.93;;;28.40;92.10;;;;;;5094658;28;20048;-68
2022/08/14 08:52:56;;;;;;;5.78;5.28;;;28.50;91.50;;;;;;5094810;28;20125;-69
2022/08/14 08:55:39;;;;;;;5.60;5.10;;;28.30;91.40;;;;;;5094574;28;20486;-68
2022/08/14 08:58:07;;;;;;;6.93;5.28;;;28.30;91.50;;;;;;5094986;28;20162;-68
2022/08/14 09:00:36;;;;;;;5.57;5.07;;;28.50;91.40;;;;;;5094460;28;20047;-68
2022/08/14 09:03:14;;;;;;;6.53;5.53;;;28.70;91.50;;;;;;5094811;28;20044;-68
2022/08/14 09:05:52;;;;;;;5.65;5.25;;;;;;;;;;5094908;28;20036;-68
2022/08/14 09:08:24;;;;;;;5.38;4.97;;;28.80;91.50;;;;;;5094659;28;20040;-68
2022/08/14 09:10:51;;;;;;;5.63;5.10;;;28.80;91.60;;;;;;5094443;28;20508;-68
2022/08/14 09:13:18;;;;;;;6.60;5.30;;;28.60;91.10;;;;;;5094648;28;20036;-68
2022/08/14 09:15:45;;;;;;;5.75;5.25;;;28.60;91.20;;;;;;5094335;28;20051;-68
2022/08/14 09:18:13;;;;;;;5.72;5.22;;;28.60;90.90;;;;;;5092946;28;20055;-68
2022/08/14 09:20:41;;;;;;;6.35;5.45;;;28.90;91.00;;;;;;5094393;28;20065;-67
2022/08/14 09:23:09;;;;;;;5.90;5.40;;;28.90;90.70;;;;;;5094325;28;20052;-68
2022/08/14 09:25:36;;;;;;;7.50;5.18;;;29.00;90.80;;;;;;5093160;28;20075;-68
2022/08/14 09:28:05;;;;;;;5.85;5.25;;;29.20;90.80;;;;;;5094808;28;20040;-68
2022/08/14 09:30:33;;;;;;;6.85;5.40;;;29.20;90.40;;;;;;5093115;28;20043;-68
2022/08/14 09:33:14;;;;;;;6.28;5.55;;;29.30;90.30;;;;;;5094164;28;20044;-68
2022/08/14 09:36:01;;;;;;;7.80;5.38;;;29.20;90.40;;;;;;5094242;28;20051;-68
2022/08/14 09:38:53;;;;;;;5.80;5.30;;;29.50;90.20;;;;;;5094052;28;20048;-68
2022/08/14 09:41:53;;;;;;;5.97;5.40;;;29.50;90.10;;;;;;5094162;28;20055;-68
2022/08/14 09:44:40;;;;;;;5.35;4.85;;;29.20;90.00;;;;;;5094111;28;20056;-68
2022/08/14 09:47:06;;;;;;;6.10;5.43;;;29.50;90.00;;;;;;5093759;28;20051;-68
2022/08/14 09:49:37;;;;;;;5.15;4.70;;;29.50;89.80;;;;;;5093574;28;20032;-68
2022/08/14 09:52:11;;;;;;;5.70;5.28;;;29.50;88.60;;;;;;5093520;28;20486;-68
2022/08/14 09:54:42;;;;;;;5.28;4.80;;;29.40;88.70;;;;;;5093963;28;20165;-68
2022/08/14 09:57:10;;;;;;;6.50;5.60;;;29.70;88.40;;;;;;5092715;28;20129;-69
2022/08/14 09:59:44;;;;;;;5.25;4.80;;;29.80;88.10;;;;;;5093582;28;20395;-69
2022/08/14 10:02:23;;;;;;;4.60;4.20;;;30.00;88.40;;;;;;5093741;28;20177;-69
2022/08/14 10:05:05;;;;;;;5.47;5.07;;;30.10;87.00;;;;;;5093560;28;20135;-69
2022/08/14 10:07:35;;;;;;;5.40;4.95;;;30.20;85.90;;;;;;5093789;28;20122;-68
2022/08/14 10:10:02;;;;;;;5.20;4.80;;;30.10;86.30;;;;;;5093501;28;20101;-68
2022/08/14 10:12:44;;;;;;;5.82;5.00;;;30.30;86.60;;;;;;5091259;28;20075;-68
2022/08/14 10:15:24;;;;;;;4.60;4.20;;;29.90;85.40;;;;;;5093831;28;20043;-68
2022/08/14 10:18:01;;;;;;;5.78;5.30;;;29.90;86.80;;;;;;5092139;28;20044;-69
2022/08/14 10:20:39;;;;;;;5.10;4.70;;;30.10;86.00;;;;;;5093451;28;20161;-68
2022/08/14 10:23:16;;;;;;;7.82;5.30;;;30.10;85.80;;;;;;5093730;28;20091;-68
2022/08/14 10:25:50;;;;;;;5.50;5.00;;;30.10;86.30;;;;;;5093592;28;20562;-69
2022/08/14 10:28:20;;;;;;;5.43;5.03;;;30.20;86.20;;;;;;5093477;28;20407;-69
2022/08/14 10:30:51;;;;;;;5.25;4.75;;;30.50;85.80;;;;;;5093481;28;20087;-68
2022/08/14 10:33:28;;;;;;;6.07;5.35;;;30.30;86.00;;;;;;5093540;28;20040;-69
2022/08/14 10:35:55;;;;;;;5.47;4.97;;;30.40;85.20;;;;;;5093500;28;20115;-69
2022/08/14 10:38:32;;;;;;;5.00;4.53;;;30.50;85.40;;;;;;5093519;28;20413;-68
2022/08/14 10:41:15;;;;;;;4.70;4.30;;;30.60;84.10;;;;;;5091658;28;20294;-69
2022/08/14 10:43:43;;;;;;;5.20;4.80;;;30.80;84.30;;;;;;5093337;28;20093;-69
2022/08/14 10:46:14;;;;;;;5.60;5.20;;;30.80;84.10;;;;;;5093231;28;20048;-68
2022/08/14 10:48:41;;;;;;;5.10;4.70;;;30.80;83.30;;;;;;5093234;28;20036;-68
2022/08/14 10:51:07;;;;;;;5.40;4.65;;;30.80;82.80;;;;;;5093219;28;20072;-69
2022/08/14 10:53:34;;;;;;;5.40;4.90;;;30.70;83.20;;;;;;5093378;28;20048;-69
2022/08/14 10:56:04;;;;;;;5.18;4.72;;;31.00;82.60;;;;;;5093314;28;20119;-69
2022/08/14 10:58:31;;;;;;;5.40;4.90;;;31.00;82.40;;;;;;5093235;28;20055;-69
2022/08/14 11:01:04;;;;;;;5.53;5.13;;;30.70;82.60;;;;;;5093136;28;20398;-68
2022/08/14 11:03:37;;;;;;;5.40;4.85;;;30.60;82.40;;;;;;5093145;28;20375;-69
2022/08/14 11:06:18;;;;;;;4.40;4.10;;;30.70;83.70;;;;;;5092993;28;20048;-69
2022/08/14 11:08:45;;;;;;;5.07;4.65;;;30.70;80.90;;;;;;5092952;28;20052;-69
2022/08/14 11:11:11;;;;;;;5.18;4.70;;;30.80;80.80;;;;;;5092858;28;20126;-69
2022/08/14 11:13:42;;;;;;;4.90;4.50;;;30.70;80.80;;;;;;5093155;28;20488;-69
2022/08/14 11:16:09;;;;;;;4.65;4.25;;;30.70;81.10;;;;;;5093055;28;20119;-69
2022/08/14 11:18:36;;;;;;;;;;;31.00;82.20;;;;;;5092151;28;20036;-69
2022/08/14 11:21:03;;;;;;;4.95;4.55;;;31.10;81.30;;;;;;5092883;28;19920;-69
2022/08/14 11:23:39;;;;;;;4.88;4.57;;;31.20;80.20;;;;;;5095566;28;20051;-68
2022/08/14 11:26:07;;;;;;;5.47;4.97;;;31.10;81.00;;;;;;5078418;28;20044;-68
2022/08/14 11:28:38;;;;;;;5.32;4.80;;;31.00;80.00;;;;;;5096679;28;20044;-68
2022/08/14 11:31:07;;;;;;;5.45;4.70;;;31.00;80.80;;;;;;5095706;28;20085;-68
2022/08/14 11:33:35;;;;;;;4.75;4.30;;;31.00;79.70;;;;;;5097194;28;20520;-69
2022/08/14 11:36:04;;;;;;;4.90;4.50;;;31.30;80.60;;;;;;5095339;28;20056;-68
2022/08/14 11:38:41;;;;;;;4.30;4.00;;;31.30;78.90;;;;;;5096386;28;20093;-68
2022/08/14 11:41:08;;;;;;;5.30;4.85;;;31.30;79.60;;;;;;5096293;28;20131;-68
2022/08/14 11:43:42;;;;;;;5.78;5.28;;;31.50;79.60;;;;;;5096093;28;20044;-68
2022/08/14 11:46:09;;;;;;;5.60;5.10;;;31.50;79.70;;;;;;5096118;28;20093;-69
2022/08/14 11:48:48;;;;;;;5.07;4.68;;;31.60;78.90;;;;;;5096286;28;20046;-69
2022/08/14 11:51:22;;;;;;;5.32;4.93;;;31.60;78.90;;;;;;5095921;28;20044;-68
2022/08/14 11:54:14;;;;;;;4.70;4.40;;;31.60;79.00;;;;;;5095969;28;20578;-69
2022/08/14 11:56:40;;;;;;;4.57;4.20;;;31.80;80.00;;;;;;5093001;28;20048;-69
2022/08/14 11:59:08;;;;;;;5.15;4.65;;;32.20;77.90;;;;;;5095998;28;20048;-69
2022/08/14 12:01:35;;;;;;;4.93;4.45;;;31.60;77.50;;;;;;5095888;28;20048;-69
2022/08/14 12:04:16;;;;;;;5.78;4.97;;;31.80;78.50;;;;;;5095984;28;20075;-69
2022/08/14 12:06:54;;;;;;;5.22;4.75;;;31.70;77.50;;;;;;5095737;28;20051;-69
2022/08/14 12:09:36;;;;;;;4.90;4.50;;;31.60;78.10;;;;;;5095962;28;20048;-69
2022/08/14 12:12:18;;;;;;;5.18;4.68;;;31.30;78.00;;;;;;5077378;28;20048;-69
2022/08/14 12:14:48;;;;;;;4.85;4.55;;;31.00;78.60;;;;;;5095776;28;20433;-69
2022/08/14 12:17:14;;;;;;;5.13;4.78;;;31.00;78.80;;;;;;5095525;28;20036;-69
2022/08/14 12:20:00;;;;;;;4.50;4.20;;;31.30;78.60;;;;;;5095483;28;20427;-68
2022/08/14 12:22:35;;;;;;;;;;;31.40;78.10;;;;;;5095981;28;20052;-68
2022/08/14 12:25:02;;;;;;;4.80;4.40;;;31.50;77.50;;;;;;5094173;28;19924;-69
2022/08/14 12:27:35;;;;;;;5.90;4.50;;;31.70;78.10;;;;;;5077393;28;20044;-69
2022/08/14 12:30:01;;;;;;;4.82;4.40;;;31.50;76.60;;;;;;5095124;28;20494;-68
2022/08/14 12:32:42;;;;;;;4.90;4.60;;;31.30;76.80;;;;;;5095369;28;20101;-68
2022/08/14 12:35:09;;;;;;;4.68;4.38;;;31.20;77.50;;;;;;5094422;28;20097;-69
2022/08/14 12:37:35;;;;;;;;;;;31.60;77.60;;;;;;5095760;28;20072;-68
2022/08/14 12:40:30;;;;;;;5.05;4.65;;;31.60;77.10;;;;;;5094794;28;19923;-68
2022/08/14 12:43:05;;;;;;;4.88;4.47;;;31.40;77.60;;;;;;5093520;28;20059;-68
2022/08/14 12:45:33;;;;;;;4.85;4.45;;;31.70;76.60;;;;;;5095243;28;20602;-68
2022/08/14 12:48:01;;;;;;;4.38;4.07;;;31.70;76.50;;;;;;5095263;28;20044;-68
2022/08/14 12:50:38;;;;;;;4.43;4.00;;;31.70;76.10;;;;;;5094771;28;20040;-68
2022/08/14 12:53:04;;;;;;;4.68;4.20;;;31.60;75.60;;;;;;5076816;28;20055;-68
2022/08/14 12:55:33;;;;;;;5.10;4.60;;;31.60;75.70;;;;;;5094721;28;20040;-68
2022/08/14 12:58:01;;;;;;;4.60;4.30;;;32.00;75.10;;;;;;5094871;28;20050;-68
2022/08/14 13:00:26;;;;;;;4.25;3.85;;;31.90;74.70;;;;;;5095078;28;20089;-68
2022/08/14 13:02:54;;;;;;;4.40;4.10;;;31.90;74.90;;;;;;5094308;28;20075;-69
2022/08/14 13:05:27;;;;;;;4.55;4.15;;;32.30;76.10;;;;;;5094674;28;20040;-68
2022/08/14 13:07:55;;;;;;;4.68;4.35;;;31.70;74.80;;;;;;5094964;28;20059;-68
2022/08/14 13:10:22;;;;;;;4.22;3.90;;;31.80;74.80;;;;;;5094568;28;20048;-69
2022/08/14 13:12:49;;;;;;;3.75;3.40;;;31.50;74.80;;;;;;5094715;28;20051;-69